Ottawa Macdonald-Cartier International Airport
CYOW : now visible

Airfield :











YOU CAN JOIN US ON...

 
LOGIN :

Register | Disclaimer

   EN    FR    IT 

 









Legend :    VFR   Marginal VFR   IFR   Intensive IFR   Very Intensive IFR
Visi :
Ceiling :
>= 8 km
>= 3000ft
5 to 8 km
1000 to 3000 ft
1500m to 5 km
500 to 1000 ft
800 to 1500m
200 to 500 ft
< 800m
< 200 ft
Symbols :   Thunderstorms  Fog  Heavy snow  Heavy precipitations  Wind > 20 kt






- Airport Elevation : 374 ft
- IATA code : YOW


CYOW - Ottawa Macdonald-Cartier International

CURRENT METAR :
  • 110300Z 27009KT 15SM FEW025 SCT040 BKN080 07/04 A2993 RMK SC1SC4AC3 SC TR SLP138

EXPIRED METARs :
  • 110236Z 27015G21KT 15SM VCSH FEW025 SCT035 OVC060 08/05 A2993 RMK SC1SC3SC4 SH E-SW SLP140
  • 110200Z 24007KT 15SM -SHRA SCT045 OVC060 09/05 A2993 RMK SC3SC5 CVCTV CLDS EMBD SLP139
  • 110149Z 21006KT 15SM -SHRA SCT045 OVC060 10/05 A2993 RMK SC3SC5 CVCTV CLDS EMBD SLP138
  • 110100Z 30009KT 15SM BKN060 OVC100 10/05 A2991 RMK SC6AC2 DIST SH ALQDS TCU ASOCTD SLP133

TAF TAF CYOW
Valid from the 11 at 03:00 until the 12 at 00:00 UTC


110238Z 1103/1124 27008KT P6SM FEW040 BKN080 OVC100
TEMPO 1103/1106 P6SM -SHRA BKN040 OVC080
FM110600 27008KT P6SM BKN030 BKN080
TEMPO 1106/1115 BKN015 BKN060
FM111500 26012G22KT P6SM BKN030 BKN060
FM111800 26012G22KT P6SM -SHRA BKN030 BKN060 RMK NXT FCST BY 110600Z
CZUL FIR / North America



MET'MAP, your aeronautical weather chart ! - Copyright ORBIFLY December 2007 - Disclaimer

ORBIFLY MET'MAP TEAM :

Programming & Development : Alexandra Zaïnal
Concept & original design : Baudouin d'Aumeries
Assistance for programming : Marc-Olivier Méhu
Technical & hardware support : Manuel Goepfert

Contact : metmap@orbifly.com




SOURCES & CREDITS :

   NOAA       Earth
Advisory